sensor_id;sensor_type;location;lat;lon;timestamp;P1;durP1;ratioP1;P2;durP2;ratioP2
44816;SDS011;30529;53.570;9.964;2023-02-22T00:01:10;22.77;;;12.60;;
44816;SDS011;30529;53.570;9.964;2023-02-22T00:04:03;29.00;;;13.10;;
44816;SDS011;30529;53.570;9.964;2023-02-22T00:06:31;27.13;;;12.57;;
44816;SDS011;30529;53.570;9.964;2023-02-22T00:08:58;26.67;;;12.70;;
44816;SDS011;30529;53.570;9.964;2023-02-22T00:11:24;24.57;;;12.97;;
44816;SDS011;30529;53.570;9.964;2023-02-22T00:13:51;25.37;;;12.70;;
44816;SDS011;30529;53.570;9.964;2023-02-22T00:16:18;24.87;;;13.47;;
44816;SDS011;30529;53.570;9.964;2023-02-22T00:18:46;23.87;;;13.70;;
44816;SDS011;30529;53.570;9.964;2023-02-22T00:21:13;21.13;;;12.33;;
44816;SDS011;30529;53.570;9.964;2023-02-22T00:23:41;23.90;;;13.03;;
44816;SDS011;30529;53.570;9.964;2023-02-22T00:26:12;25.63;;;13.00;;
44816;SDS011;30529;53.570;9.964;2023-02-22T00:28:47;26.70;;;12.40;;
44816;SDS011;30529;53.570;9.964;2023-02-22T00:31:16;22.13;;;13.03;;
44816;SDS011;30529;53.570;9.964;2023-02-22T00:33:43;25.10;;;13.20;;
44816;SDS011;30529;53.570;9.964;2023-02-22T00:36:10;24.77;;;13.73;;
44816;SDS011;30529;53.570;9.964;2023-02-22T00:38:37;27.20;;;13.43;;
44816;SDS011;30529;53.570;9.964;2023-02-22T00:41:04;27.20;;;13.43;;
44816;SDS011;30529;53.570;9.964;2023-02-22T00:43:31;27.97;;;14.27;;
44816;SDS011;30529;53.570;9.964;2023-02-22T00:45:58;30.20;;;15.57;;
44816;SDS011;30529;53.570;9.964;2023-02-22T00:48:24;30.53;;;14.70;;
44816;SDS011;30529;53.570;9.964;2023-02-22T00:50:50;36.10;;;16.77;;
44816;SDS011;30529;53.570;9.964;2023-02-22T00:53:20;33.77;;;17.07;;
44816;SDS011;30529;53.570;9.964;2023-02-22T00:55:49;32.83;;;16.40;;
44816;SDS011;30529;53.570;9.964;2023-02-22T00:58:16;35.13;;;16.07;;
44816;SDS011;30529;53.570;9.964;2023-02-22T01:00:42;35.20;;;16.10;;
44816;SDS011;30529;53.570;9.964;2023-02-22T01:03:09;35.33;;;16.87;;
44816;SDS011;30529;53.570;9.964;2023-02-22T01:05:37;43.03;;;18.03;;
44816;SDS011;30529;53.570;9.964;2023-02-22T01:08:04;40.60;;;17.83;;
44816;SDS011;30529;53.570;9.964;2023-02-22T01:10:31;42.97;;;17.90;;
44816;SDS011;30529;53.570;9.964;2023-02-22T01:12:58;42.23;;;19.33;;
44816;SDS011;30529;53.570;9.964;2023-02-22T01:15:25;39.27;;;18.20;;
44816;SDS011;30529;53.570;9.964;2023-02-22T01:17:58;44.37;;;19.37;;
44816;SDS011;30529;53.570;9.964;2023-02-22T01:20:24;47.50;;;20.10;;
44816;SDS011;30529;53.570;9.964;2023-02-22T01:22:52;41.90;;;19.70;;
44816;SDS011;30529;53.570;9.964;2023-02-22T01:25:23;45.03;;;19.90;;
44816;SDS011;30529;53.570;9.964;2023-02-22T01:27:50;49.10;;;20.77;;
44816;SDS011;30529;53.570;9.964;2023-02-22T01:30:22;49.30;;;21.10;;
44816;SDS011;30529;53.570;9.964;2023-02-22T01:32:56;46.67;;;19.53;;
44816;SDS011;30529;53.570;9.964;2023-02-22T01:35:24;43.60;;;18.70;;
44816;SDS011;30529;53.570;9.964;2023-02-22T01:37:52;44.27;;;20.50;;
44816;SDS011;30529;53.570;9.964;2023-02-22T01:40:23;48.97;;;19.87;;
44816;SDS011;30529;53.570;9.964;2023-02-22T01:42:54;39.53;;;17.30;;
44816;SDS011;30529;53.570;9.964;2023-02-22T01:50:30;41.50;;;17.27;;
44816;SDS011;30529;53.570;9.964;2023-02-22T01:53:00;44.67;;;19.03;;
44816;SDS011;30529;53.570;9.964;2023-02-22T01:55:27;41.20;;;17.87;;
44816;SDS011;30529;53.570;9.964;2023-02-22T01:57:55;44.23;;;17.53;;
44816;SDS011;30529;53.570;9.964;2023-02-22T02:00:22;43.00;;;20.20;;
44816;SDS011;30529;53.570;9.964;2023-02-22T02:02:54;42.60;;;19.13;;
44816;SDS011;30529;53.570;9.964;2023-02-22T02:05:27;41.33;;;17.97;;
44816;SDS011;30529;53.570;9.964;2023-02-22T02:07:56;51.20;;;19.30;;
44816;SDS011;30529;53.570;9.964;2023-02-22T02:10:23;45.50;;;17.80;;
44816;SDS011;30529;53.570;9.964;2023-02-22T02:12:52;40.03;;;18.10;;
44816;SDS011;30529;53.570;9.964;2023-02-22T02:15:24;41.77;;;17.53;;
44816;SDS011;30529;53.570;9.964;2023-02-22T02:17:59;39.40;;;17.97;;
44816;SDS011;30529;53.570;9.964;2023-02-22T02:20:37;35.37;;;16.87;;
44816;SDS011;30529;53.570;9.964;2023-02-22T02:23:58;37.40;;;16.77;;
44816;SDS011;30529;53.570;9.964;2023-02-22T02:32:50;40.30;;;18.27;;
44816;SDS011;30529;53.570;9.964;2023-02-22T02:38:16;45.13;;;18.50;;
44816;SDS011;30529;53.570;9.964;2023-02-22T02:40:56;42.00;;;17.67;;
44816;SDS011;30529;53.570;9.964;2023-02-22T02:43:37;41.87;;;18.40;;
44816;SDS011;30529;53.570;9.964;2023-02-22T02:46:13;41.07;;;18.23;;
44816;SDS011;30529;53.570;9.964;2023-02-22T02:48:55;45.13;;;18.40;;
44816;SDS011;30529;53.570;9.964;2023-02-22T02:51:26;35.20;;;16.07;;
44816;SDS011;30529;53.570;9.964;2023-02-22T02:53:56;41.70;;;16.93;;
44816;SDS011;30529;53.570;9.964;2023-02-22T02:56:23;45.23;;;17.43;;
44816;SDS011;30529;53.570;9.964;2023-02-22T02:58:50;42.00;;;16.67;;
44816;SDS011;30529;53.570;9.964;2023-02-22T03:03:54;40.03;;;16.40;;
44816;SDS011;30529;53.570;9.964;2023-02-22T03:09:36;35.33;;;15.67;;
44816;SDS011;30529;53.570;9.964;2023-02-22T03:12:26;33.57;;;15.13;;
44816;SDS011;30529;53.570;9.964;2023-02-22T03:15:14;43.70;;;16.10;;
44816;SDS011;30529;53.570;9.964;2023-02-22T03:20:42;28.33;;;13.87;;
44816;SDS011;30529;53.570;9.964;2023-02-22T03:23:31;31.80;;;14.50;;
44816;SDS011;30529;53.570;9.964;2023-02-22T03:26:04;28.33;;;14.23;;
44816;SDS011;30529;53.570;9.964;2023-02-22T03:28:36;33.43;;;15.17;;
44816;SDS011;30529;53.570;9.964;2023-02-22T03:31:12;30.20;;;15.10;;
44816;SDS011;30529;53.570;9.964;2023-02-22T03:33:54;29.67;;;13.97;;
44816;SDS011;30529;53.570;9.964;2023-02-22T03:36:25;31.60;;;15.00;;
44816;SDS011;30529;53.570;9.964;2023-02-22T03:38:56;29.57;;;15.07;;
44816;SDS011;30529;53.570;9.964;2023-02-22T03:41:28;29.23;;;15.20;;
44816;SDS011;30529;53.570;9.964;2023-02-22T03:43:57;31.00;;;15.63;;
44816;SDS011;30529;53.570;9.964;2023-02-22T03:46:26;32.37;;;16.10;;
44816;SDS011;30529;53.570;9.964;2023-02-22T03:49:10;29.30;;;14.77;;
44816;SDS011;30529;53.570;9.964;2023-02-22T03:51:40;29.07;;;14.73;;
44816;SDS011;30529;53.570;9.964;2023-02-22T03:54:06;28.73;;;14.77;;
44816;SDS011;30529;53.570;9.964;2023-02-22T03:56:34;29.67;;;14.70;;
44816;SDS011;30529;53.570;9.964;2023-02-22T03:59:11;30.00;;;13.50;;
44816;SDS011;30529;53.570;9.964;2023-02-22T04:01:38;30.17;;;14.50;;
44816;SDS011;30529;53.570;9.964;2023-02-22T04:04:04;29.73;;;15.00;;
44816;SDS011;30529;53.570;9.964;2023-02-22T04:06:30;29.40;;;14.80;;
44816;SDS011;30529;53.570;9.964;2023-02-22T04:08:56;27.43;;;14.30;;
44816;SDS011;30529;53.570;9.964;2023-02-22T04:11:21;27.77;;;13.27;;
44816;SDS011;30529;53.570;9.964;2023-02-22T04:13:47;25.67;;;12.83;;
44816;SDS011;30529;53.570;9.964;2023-02-22T04:16:14;28.83;;;14.40;;
44816;SDS011;30529;53.570;9.964;2023-02-22T04:18:40;24.80;;;12.67;;
44816;SDS011;30529;53.570;9.964;2023-02-22T04:21:07;27.80;;;13.10;;
44816;SDS011;30529;53.570;9.964;2023-02-22T04:23:33;25.03;;;12.93;;
44816;SDS011;30529;53.570;9.964;2023-02-22T04:25:59;29.00;;;14.20;;
44816;SDS011;30529;53.570;9.964;2023-02-22T04:28:25;26.90;;;12.83;;
44816;SDS011;30529;53.570;9.964;2023-02-22T04:30:51;24.17;;;12.97;;
44816;SDS011;30529;53.570;9.964;2023-02-22T04:33:17;27.73;;;13.43;;
44816;SDS011;30529;53.570;9.964;2023-02-22T04:35:43;24.77;;;13.80;;
44816;SDS011;30529;53.570;9.964;2023-02-22T04:38:09;22.00;;;12.10;;
44816;SDS011;30529;53.570;9.964;2023-02-22T04:40:35;25.27;;;14.03;;
44816;SDS011;30529;53.570;9.964;2023-02-22T04:43:01;21.43;;;12.20;;
44816;SDS011;30529;53.570;9.964;2023-02-22T04:45:27;29.93;;;14.17;;
44816;SDS011;30529;53.570;9.964;2023-02-22T04:47:53;25.17;;;13.77;;
44816;SDS011;30529;53.570;9.964;2023-02-22T04:50:19;30.83;;;13.60;;
44816;SDS011;30529;53.570;9.964;2023-02-22T04:52:45;23.40;;;13.27;;
44816;SDS011;30529;53.570;9.964;2023-02-22T04:55:12;29.27;;;14.63;;
44816;SDS011;30529;53.570;9.964;2023-02-22T04:57:38;28.40;;;13.67;;
44816;SDS011;30529;53.570;9.964;2023-02-22T05:00:04;29.70;;;14.30;;
44816;SDS011;30529;53.570;9.964;2023-02-22T05:02:31;33.00;;;15.53;;
44816;SDS011;30529;53.570;9.964;2023-02-22T05:04:57;34.13;;;15.50;;
44816;SDS011;30529;53.570;9.964;2023-02-22T05:07:23;30.23;;;15.13;;
44816;SDS011;30529;53.570;9.964;2023-02-22T05:09:49;33.73;;;15.87;;
44816;SDS011;30529;53.570;9.964;2023-02-22T05:12:14;33.60;;;15.90;;
44816;SDS011;30529;53.570;9.964;2023-02-22T05:14:40;32.33;;;15.43;;
44816;SDS011;30529;53.570;9.964;2023-02-22T05:17:07;31.03;;;13.27;;
44816;SDS011;30529;53.570;9.964;2023-02-22T05:19:33;31.57;;;14.13;;
44816;SDS011;30529;53.570;9.964;2023-02-22T05:21:59;30.27;;;14.07;;
44816;SDS011;30529;53.570;9.964;2023-02-22T05:24:24;32.80;;;14.07;;
44816;SDS011;30529;53.570;9.964;2023-02-22T05:26:51;34.17;;;13.87;;
44816;SDS011;30529;53.570;9.964;2023-02-22T05:29:17;35.50;;;14.50;;
44816;SDS011;30529;53.570;9.964;2023-02-22T05:31:44;31.87;;;14.17;;
44816;SDS011;30529;53.570;9.964;2023-02-22T05:34:10;35.93;;;14.93;;
44816;SDS011;30529;53.570;9.964;2023-02-22T05:36:36;36.23;;;14.33;;
44816;SDS011;30529;53.570;9.964;2023-02-22T05:39:02;42.10;;;17.60;;
44816;SDS011;30529;53.570;9.964;2023-02-22T05:41:29;39.50;;;15.83;;
44816;SDS011;30529;53.570;9.964;2023-02-22T05:43:55;41.10;;;15.70;;
44816;SDS011;30529;53.570;9.964;2023-02-22T05:46:21;42.93;;;16.83;;
44816;SDS011;30529;53.570;9.964;2023-02-22T05:48:47;39.10;;;15.87;;
44816;SDS011;30529;53.570;9.964;2023-02-22T05:51:13;39.13;;;16.03;;
44816;SDS011;30529;53.570;9.964;2023-02-22T05:53:39;44.43;;;17.33;;
44816;SDS011;30529;53.570;9.964;2023-02-22T05:56:06;44.30;;;18.57;;
44816;SDS011;30529;53.570;9.964;2023-02-22T05:58:32;40.00;;;17.83;;
44816;SDS011;30529;53.570;9.964;2023-02-22T06:00:58;46.47;;;18.43;;
44816;SDS011;30529;53.570;9.964;2023-02-22T06:03:24;48.43;;;16.67;;
44816;SDS011;30529;53.570;9.964;2023-02-22T06:05:50;46.43;;;17.77;;
44816;SDS011;30529;53.570;9.964;2023-02-22T06:08:16;48.77;;;19.10;;
44816;SDS011;30529;53.570;9.964;2023-02-22T06:10:43;47.50;;;18.20;;
44816;SDS011;30529;53.570;9.964;2023-02-22T06:13:09;43.70;;;18.00;;
44816;SDS011;30529;53.570;9.964;2023-02-22T06:15:34;47.53;;;19.10;;
44816;SDS011;30529;53.570;9.964;2023-02-22T06:18:01;43.67;;;18.23;;
44816;SDS011;30529;53.570;9.964;2023-02-22T06:20:28;44.97;;;19.10;;
44816;SDS011;30529;53.570;9.964;2023-02-22T06:22:55;54.37;;;19.57;;
44816;SDS011;30529;53.570;9.964;2023-02-22T06:25:24;41.37;;;16.70;;
44816;SDS011;30529;53.570;9.964;2023-02-22T06:27:52;41.50;;;17.70;;
44816;SDS011;30529;53.570;9.964;2023-02-22T06:30:20;43.47;;;18.27;;
44816;SDS011;30529;53.570;9.964;2023-02-22T06:32:47;45.17;;;18.57;;
44816;SDS011;30529;53.570;9.964;2023-02-22T06:35:14;46.93;;;18.13;;
44816;SDS011;30529;53.570;9.964;2023-02-22T06:37:41;43.20;;;17.53;;
44816;SDS011;30529;53.570;9.964;2023-02-22T06:40:07;36.53;;;16.37;;
44816;SDS011;30529;53.570;9.964;2023-02-22T06:42:35;42.50;;;17.20;;
44816;SDS011;30529;53.570;9.964;2023-02-22T06:45:02;49.23;;;17.70;;
44816;SDS011;30529;53.570;9.964;2023-02-22T06:47:28;38.87;;;16.33;;
44816;SDS011;30529;53.570;9.964;2023-02-22T06:49:57;39.13;;;17.93;;
44816;SDS011;30529;53.570;9.964;2023-02-22T06:52:25;45.03;;;17.80;;
44816;SDS011;30529;53.570;9.964;2023-02-22T06:54:51;41.73;;;17.23;;
44816;SDS011;30529;53.570;9.964;2023-02-22T06:57:17;43.73;;;16.83;;
44816;SDS011;30529;53.570;9.964;2023-02-22T06:59:43;42.13;;;17.90;;
44816;SDS011;30529;53.570;9.964;2023-02-22T07:02:10;42.13;;;17.70;;
44816;SDS011;30529;53.570;9.964;2023-02-22T07:04:37;38.53;;;15.87;;
44816;SDS011;30529;53.570;9.964;2023-02-22T07:07:03;40.77;;;16.37;;
44816;SDS011;30529;53.570;9.964;2023-02-22T07:09:29;40.13;;;17.47;;
44816;SDS011;30529;53.570;9.964;2023-02-22T07:11:56;39.87;;;15.30;;
44816;SDS011;30529;53.570;9.964;2023-02-22T07:14:21;43.47;;;15.90;;
44816;SDS011;30529;53.570;9.964;2023-02-22T07:16:48;41.97;;;16.60;;
44816;SDS011;30529;53.570;9.964;2023-02-22T07:19:14;39.47;;;16.07;;
44816;SDS011;30529;53.570;9.964;2023-02-22T07:21:40;35.97;;;15.10;;
44816;SDS011;30529;53.570;9.964;2023-02-22T07:24:06;30.23;;;15.00;;
44816;SDS011;30529;53.570;9.964;2023-02-22T07:26:37;35.23;;;15.03;;
44816;SDS011;30529;53.570;9.964;2023-02-22T07:29:05;36.80;;;14.53;;
44816;SDS011;30529;53.570;9.964;2023-02-22T07:31:36;36.73;;;15.77;;
44816;SDS011;30529;53.570;9.964;2023-02-22T07:34:03;34.93;;;14.77;;
44816;SDS011;30529;53.570;9.964;2023-02-22T07:36:29;36.67;;;15.27;;
44816;SDS011;30529;53.570;9.964;2023-02-22T07:38:55;33.03;;;14.90;;
44816;SDS011;30529;53.570;9.964;2023-02-22T07:41:21;34.17;;;13.80;;
44816;SDS011;30529;53.570;9.964;2023-02-22T07:43:47;32.33;;;14.27;;
44816;SDS011;30529;53.570;9.964;2023-02-22T07:46:13;32.07;;;13.83;;
44816;SDS011;30529;53.570;9.964;2023-02-22T07:48:39;28.90;;;13.90;;
44816;SDS011;30529;53.570;9.964;2023-02-22T07:51:06;29.07;;;13.70;;
44816;SDS011;30529;53.570;9.964;2023-02-22T07:53:34;27.73;;;13.80;;
44816;SDS011;30529;53.570;9.964;2023-02-22T07:56:01;33.57;;;14.83;;
44816;SDS011;30529;53.570;9.964;2023-02-22T07:58:30;28.47;;;14.80;;
44816;SDS011;30529;53.570;9.964;2023-02-22T08:00:57;29.27;;;14.80;;
44816;SDS011;30529;53.570;9.964;2023-02-22T08:03:24;28.47;;;13.03;;
44816;SDS011;30529;53.570;9.964;2023-02-22T08:05:52;28.70;;;15.13;;
44816;SDS011;30529;53.570;9.964;2023-02-22T08:08:20;31.00;;;13.87;;
44816;SDS011;30529;53.570;9.964;2023-02-22T08:10:47;26.40;;;14.13;;
44816;SDS011;30529;53.570;9.964;2023-02-22T08:13:14;27.63;;;13.63;;
44816;SDS011;30529;53.570;9.964;2023-02-22T08:15:40;27.80;;;13.33;;
44816;SDS011;30529;53.570;9.964;2023-02-22T08:18:12;26.97;;;13.43;;
44816;SDS011;30529;53.570;9.964;2023-02-22T08:20:41;26.87;;;14.07;;
44816;SDS011;30529;53.570;9.964;2023-02-22T08:23:09;27.23;;;14.50;;
44816;SDS011;30529;53.570;9.964;2023-02-22T08:25:36;26.10;;;12.50;;
44816;SDS011;30529;53.570;9.964;2023-02-22T08:28:05;25.30;;;14.10;;
44816;SDS011;30529;53.570;9.964;2023-02-22T08:30:33;24.20;;;13.17;;
44816;SDS011;30529;53.570;9.964;2023-02-22T08:33:00;26.60;;;13.93;;
44816;SDS011;30529;53.570;9.964;2023-02-22T08:35:27;27.23;;;13.80;;
44816;SDS011;30529;53.570;9.964;2023-02-22T08:37:57;28.63;;;14.70;;
44816;SDS011;30529;53.570;9.964;2023-02-22T08:40:27;23.60;;;12.97;;
44816;SDS011;30529;53.570;9.964;2023-02-22T08:42:55;28.60;;;14.23;;
44816;SDS011;30529;53.570;9.964;2023-02-22T08:45:21;23.07;;;13.40;;
44816;SDS011;30529;53.570;9.964;2023-02-22T08:47:48;19.77;;;11.43;;
44816;SDS011;30529;53.570;9.964;2023-02-22T08:50:16;22.73;;;12.70;;
44816;SDS011;30529;53.570;9.964;2023-02-22T08:52:44;27.23;;;13.17;;
44816;SDS011;30529;53.570;9.964;2023-02-22T08:55:10;23.73;;;11.77;;
44816;SDS011;30529;53.570;9.964;2023-02-22T08:57:36;23.07;;;12.67;;
44816;SDS011;30529;53.570;9.964;2023-02-22T09:00:03;23.60;;;12.10;;
44816;SDS011;30529;53.570;9.964;2023-02-22T09:02:30;23.03;;;12.47;;
44816;SDS011;30529;53.570;9.964;2023-02-22T09:04:56;23.93;;;12.87;;
44816;SDS011;30529;53.570;9.964;2023-02-22T09:07:45;21.73;;;12.27;;
44816;SDS011;30529;53.570;9.964;2023-02-22T09:10:18;22.17;;;12.57;;
44816;SDS011;30529;53.570;9.964;2023-02-22T09:12:57;21.73;;;11.70;;
44816;SDS011;30529;53.570;9.964;2023-02-22T09:15:25;24.37;;;12.33;;
44816;SDS011;30529;53.570;9.964;2023-02-22T09:17:51;24.63;;;13.70;;
44816;SDS011;30529;53.570;9.964;2023-02-22T09:20:18;28.27;;;14.00;;
44816;SDS011;30529;53.570;9.964;2023-02-22T09:22:46;27.57;;;15.47;;
44816;SDS011;30529;53.570;9.964;2023-02-22T09:25:13;34.13;;;16.43;;
44816;SDS011;30529;53.570;9.964;2023-02-22T09:27:39;28.83;;;16.80;;
44816;SDS011;30529;53.570;9.964;2023-02-22T09:30:10;29.20;;;16.30;;
44816;SDS011;30529;53.570;9.964;2023-02-22T09:32:48;28.93;;;15.27;;
44816;SDS011;30529;53.570;9.964;2023-02-22T09:35:15;34.47;;;17.03;;
44816;SDS011;30529;53.570;9.964;2023-02-22T09:37:41;33.87;;;17.30;;
44816;SDS011;30529;53.570;9.964;2023-02-22T09:40:30;33.63;;;18.40;;
44816;SDS011;30529;53.570;9.964;2023-02-22T09:43:08;28.90;;;15.97;;
44816;SDS011;30529;53.570;9.964;2023-02-22T09:48:40;29.63;;;16.40;;
44816;SDS011;30529;53.570;9.964;2023-02-22T09:51:22;26.23;;;16.10;;
44816;SDS011;30529;53.570;9.964;2023-02-22T09:54:00;30.50;;;15.60;;
44816;SDS011;30529;53.570;9.964;2023-02-22T09:56:28;29.07;;;16.50;;
44816;SDS011;30529;53.570;9.964;2023-02-22T09:58:58;26.40;;;14.97;;
44816;SDS011;30529;53.570;9.964;2023-02-22T10:01:29;28.47;;;16.93;;
44816;SDS011;30529;53.570;9.964;2023-02-22T10:07:04;27.17;;;15.20;;
44816;SDS011;30529;53.570;9.964;2023-02-22T10:09:40;24.53;;;13.90;;
44816;SDS011;30529;53.570;9.964;2023-02-22T10:12:14;25.47;;;15.27;;
44816;SDS011;30529;53.570;9.964;2023-02-22T10:17:46;27.03;;;15.87;;
44816;SDS011;30529;53.570;9.964;2023-02-22T10:20:19;21.53;;;12.70;;
44816;SDS011;30529;53.570;9.964;2023-02-22T10:23:14;23.57;;;13.40;;
44816;SDS011;30529;53.570;9.964;2023-02-22T10:25:47;21.07;;;11.83;;
44816;SDS011;30529;53.570;9.964;2023-02-22T10:28:21;24.40;;;12.73;;
44816;SDS011;30529;53.570;9.964;2023-02-22T10:30:57;21.70;;;13.33;;
44816;SDS011;30529;53.570;9.964;2023-02-22T10:33:31;24.30;;;13.77;;
44816;SDS011;30529;53.570;9.964;2023-02-22T10:36:01;23.50;;;14.90;;
44816;SDS011;30529;53.570;9.964;2023-02-22T10:38:28;23.00;;;14.70;;
44816;SDS011;30529;53.570;9.964;2023-02-22T10:43:29;23.93;;;14.20;;
44816;SDS011;30529;53.570;9.964;2023-02-22T10:45:57;22.97;;;13.37;;
44816;SDS011;30529;53.570;9.964;2023-02-22T10:48:27;23.60;;;14.33;;
44816;SDS011;30529;53.570;9.964;2023-02-22T10:50:58;24.50;;;14.27;;
44816;SDS011;30529;53.570;9.964;2023-02-22T10:53:26;22.87;;;14.20;;
44816;SDS011;30529;53.570;9.964;2023-02-22T10:56:06;23.87;;;14.00;;
44816;SDS011;30529;53.570;9.964;2023-02-22T10:58:41;20.83;;;12.63;;
44816;SDS011;30529;53.570;9.964;2023-02-22T11:04:00;23.87;;;13.50;;
44816;SDS011;30529;53.570;9.964;2023-02-22T11:06:34;23.37;;;14.00;;
44816;SDS011;30529;53.570;9.964;2023-02-22T11:09:15;23.57;;;13.90;;
44816;SDS011;30529;53.570;9.964;2023-02-22T11:11:44;25.50;;;13.87;;
44816;SDS011;30529;53.570;9.964;2023-02-22T11:14:26;22.63;;;14.17;;
44816;SDS011;30529;53.570;9.964;2023-02-22T11:16:54;22.13;;;12.83;;
44816;SDS011;30529;53.570;9.964;2023-02-22T11:19:26;25.80;;;15.23;;
44816;SDS011;30529;53.570;9.964;2023-02-22T11:24:33;23.43;;;13.97;;
44816;SDS011;30529;53.570;9.964;2023-02-22T11:27:09;21.83;;;13.33;;
44816;SDS011;30529;53.570;9.964;2023-02-22T11:30:06;23.73;;;13.63;;
44816;SDS011;30529;53.570;9.964;2023-02-22T11:33:15;21.13;;;13.33;;
44816;SDS011;30529;53.570;9.964;2023-02-22T11:35:52;21.63;;;12.57;;
44816;SDS011;30529;53.570;9.964;2023-02-22T11:38:33;19.87;;;13.00;;
44816;SDS011;30529;53.570;9.964;2023-02-22T11:41:15;21.13;;;13.13;;
44816;SDS011;30529;53.570;9.964;2023-02-22T11:43:48;20.93;;;12.40;;
44816;SDS011;30529;53.570;9.964;2023-02-22T11:46:19;23.97;;;13.93;;
44816;SDS011;30529;53.570;9.964;2023-02-22T11:49:07;20.53;;;12.63;;
44816;SDS011;30529;53.570;9.964;2023-02-22T12:00:22;18.63;;;12.50;;
44816;SDS011;30529;53.570;9.964;2023-02-22T12:05:54;19.80;;;13.20;;
44816;SDS011;30529;53.570;9.964;2023-02-22T12:11:31;20.33;;;12.63;;
44816;SDS011;30529;53.570;9.964;2023-02-22T12:14:20;21.57;;;12.23;;
44816;SDS011;30529;53.570;9.964;2023-02-22T12:19:42;19.27;;;11.83;;
44816;SDS011;30529;53.570;9.964;2023-02-22T12:22:14;19.53;;;12.10;;
44816;SDS011;30529;53.570;9.964;2023-02-22T12:24:45;19.77;;;11.50;;
44816;SDS011;30529;53.570;9.964;2023-02-22T12:27:18;18.37;;;11.40;;
44816;SDS011;30529;53.570;9.964;2023-02-22T12:29:54;23.60;;;12.93;;
44816;SDS011;30529;53.570;9.964;2023-02-22T12:32:31;17.30;;;11.13;;
44816;SDS011;30529;53.570;9.964;2023-02-22T12:35:14;19.27;;;11.30;;
44816;SDS011;30529;53.570;9.964;2023-02-22T12:43:38;21.23;;;12.30;;
44816;SDS011;30529;53.570;9.964;2023-02-22T12:46:15;17.33;;;11.20;;
44816;SDS011;30529;53.570;9.964;2023-02-22T12:49:04;16.40;;;11.47;;
44816;SDS011;30529;53.570;9.964;2023-02-22T13:00:34;18.60;;;11.57;;
44816;SDS011;30529;53.570;9.964;2023-02-22T13:20:07;17.87;;;11.17;;
44816;SDS011;30529;53.570;9.964;2023-02-22T13:22:36;15.30;;;10.23;;
44816;SDS011;30529;53.570;9.964;2023-02-22T13:28:01;15.10;;;9.60;;
44816;SDS011;30529;53.570;9.964;2023-02-22T13:30:44;19.60;;;11.37;;
44816;SDS011;30529;53.570;9.964;2023-02-22T13:36:21;18.70;;;10.53;;
44816;SDS011;30529;53.570;9.964;2023-02-22T13:39:20;15.33;;;10.07;;
44816;SDS011;30529;53.570;9.964;2023-02-22T13:53:16;16.30;;;9.97;;
44816;SDS011;30529;53.570;9.964;2023-02-22T13:55:50;19.83;;;10.17;;
44816;SDS011;30529;53.570;9.964;2023-02-22T13:58:21;16.27;;;9.13;;
44816;SDS011;30529;53.570;9.964;2023-02-22T14:00:49;18.37;;;9.43;;
44816;SDS011;30529;53.570;9.964;2023-02-22T14:06:09;17.47;;;9.13;;
44816;SDS011;30529;53.570;9.964;2023-02-22T14:08:55;15.13;;;8.83;;
44816;SDS011;30529;53.570;9.964;2023-02-22T14:16:19;14.70;;;9.47;;
44816;SDS011;30529;53.570;9.964;2023-02-22T14:18:49;14.47;;;8.93;;
44816;SDS011;30529;53.570;9.964;2023-02-22T14:21:26;14.90;;;9.23;;
44816;SDS011;30529;53.570;9.964;2023-02-22T14:23:53;14.50;;;8.93;;
44816;SDS011;30529;53.570;9.964;2023-02-22T14:26:25;18.90;;;9.63;;
44816;SDS011;30529;53.570;9.964;2023-02-22T14:28:58;16.17;;;8.87;;
44816;SDS011;30529;53.570;9.964;2023-02-22T14:31:28;15.47;;;9.17;;
44816;SDS011;30529;53.570;9.964;2023-02-22T14:36:41;15.80;;;8.80;;
44816;SDS011;30529;53.570;9.964;2023-02-22T14:39:13;13.07;;;8.80;;
44816;SDS011;30529;53.570;9.964;2023-02-22T14:42:04;13.50;;;8.70;;
44816;SDS011;30529;53.570;9.964;2023-02-22T14:44:36;13.23;;;8.77;;
44816;SDS011;30529;53.570;9.964;2023-02-22T14:47:06;14.33;;;9.00;;
44816;SDS011;30529;53.570;9.964;2023-02-22T14:49:41;15.27;;;9.70;;
44816;SDS011;30529;53.570;9.964;2023-02-22T14:52:16;16.10;;;9.43;;
44816;SDS011;30529;53.570;9.964;2023-02-22T14:54:54;15.70;;;9.27;;
44816;SDS011;30529;53.570;9.964;2023-02-22T15:00:22;14.80;;;8.90;;
44816;SDS011;30529;53.570;9.964;2023-02-22T15:02:57;14.53;;;9.37;;
44816;SDS011;30529;53.570;9.964;2023-02-22T15:05:25;13.47;;;9.53;;
44816;SDS011;30529;53.570;9.964;2023-02-22T15:07:56;18.07;;;10.30;;
44816;SDS011;30529;53.570;9.964;2023-02-22T15:13:00;15.20;;;9.63;;
44816;SDS011;30529;53.570;9.964;2023-02-22T15:15:36;17.20;;;9.90;;
44816;SDS011;30529;53.570;9.964;2023-02-22T15:18:08;19.07;;;10.30;;
44816;SDS011;30529;53.570;9.964;2023-02-22T15:20:42;14.50;;;9.47;;
44816;SDS011;30529;53.570;9.964;2023-02-22T15:23:08;15.90;;;9.60;;
44816;SDS011;30529;53.570;9.964;2023-02-22T15:25:34;16.23;;;9.57;;
44816;SDS011;30529;53.570;9.964;2023-02-22T15:28:03;15.47;;;9.30;;
44816;SDS011;30529;53.570;9.964;2023-02-22T15:30:33;18.03;;;9.93;;
44816;SDS011;30529;53.570;9.964;2023-02-22T15:33:13;16.53;;;9.63;;
44816;SDS011;30529;53.570;9.964;2023-02-22T15:35:42;17.10;;;9.60;;
44816;SDS011;30529;53.570;9.964;2023-02-22T15:40:36;16.10;;;9.07;;
44816;SDS011;30529;53.570;9.964;2023-02-22T15:43:14;24.93;;;9.67;;
44816;SDS011;30529;53.570;9.964;2023-02-22T15:45:49;13.97;;;8.80;;
44816;SDS011;30529;53.570;9.964;2023-02-22T15:48:16;15.90;;;9.40;;
44816;SDS011;30529;53.570;9.964;2023-02-22T15:53:40;15.23;;;9.40;;
44816;SDS011;30529;53.570;9.964;2023-02-22T15:56:13;16.27;;;9.57;;
44816;SDS011;30529;53.570;9.964;2023-02-22T15:58:42;14.77;;;9.47;;
44816;SDS011;30529;53.570;9.964;2023-02-22T16:01:12;14.50;;;8.83;;
44816;SDS011;30529;53.570;9.964;2023-02-22T16:03:50;16.00;;;9.47;;
44816;SDS011;30529;53.570;9.964;2023-02-22T16:06:28;19.63;;;10.17;;
44816;SDS011;30529;53.570;9.964;2023-02-22T16:09:07;18.27;;;9.47;;
44816;SDS011;30529;53.570;9.964;2023-02-22T16:11:39;16.50;;;10.20;;
44816;SDS011;30529;53.570;9.964;2023-02-22T16:14:28;14.60;;;9.27;;
44816;SDS011;30529;53.570;9.964;2023-02-22T16:19:49;16.23;;;9.73;;
44816;SDS011;30529;53.570;9.964;2023-02-22T16:22:32;15.93;;;9.63;;
44816;SDS011;30529;53.570;9.964;2023-02-22T16:27:47;14.33;;;9.53;;
44816;SDS011;30529;53.570;9.964;2023-02-22T16:32:47;15.57;;;10.07;;
44816;SDS011;30529;53.570;9.964;2023-02-22T16:35:14;15.67;;;9.57;;
44816;SDS011;30529;53.570;9.964;2023-02-22T16:37:47;16.07;;;8.90;;
44816;SDS011;30529;53.570;9.964;2023-02-22T16:40:20;16.37;;;10.17;;
44816;SDS011;30529;53.570;9.964;2023-02-22T16:42:48;21.87;;;10.13;;
44816;SDS011;30529;53.570;9.964;2023-02-22T16:45:16;15.30;;;10.07;;
44816;SDS011;30529;53.570;9.964;2023-02-22T16:47:46;18.17;;;10.10;;
44816;SDS011;30529;53.570;9.964;2023-02-22T16:50:16;15.73;;;9.90;;
44816;SDS011;30529;53.570;9.964;2023-02-22T16:52:42;15.87;;;10.03;;
44816;SDS011;30529;53.570;9.964;2023-02-22T16:55:08;18.70;;;10.20;;
44816;SDS011;30529;53.570;9.964;2023-02-22T16:57:37;18.33;;;9.60;;
44816;SDS011;30529;53.570;9.964;2023-02-22T17:00:05;16.50;;;9.77;;